Anton, Texas
Current Conditions -  °F | °C
As of 1:53 PM on Friday 31 Oct 2014 (Local Time) from KLBB Reporting Station
Few Clouds Few Clouds  
Wind Chill: 18°   Ceiling: Unl
Heat Index: 18°   Visibility: 10mi
Dew Point:   Wind: 13mph
Humidity: 31%   Direction: 110°ESE
Pressure: 30.4"   Gusts: NA
Location:  33.81°N, 102.16°W
Report Text: KLBB 311853Z 11011KT 10SM FEW200 FEW300 18/01 A3040 RMK AO2 SLP271 T01830006
Loading
Personal Weather Stations






























Interactive Weather Map New forecast layout! Learn more

10-Day Weather Forecast

Advertisements
Track Severe Weather on mobile